createdAt,value
2018-08-27T00:00:40.383Z,55.5
2018-08-27T00:01:40.063Z,55.55
2018-08-27T00:02:40.026Z,55.74
2018-08-27T00:03:40.055Z,55.48
2018-08-27T00:04:40.154Z,55.48
2018-08-27T00:05:40.259Z,55.61
2018-08-27T00:06:40.036Z,55.52
2018-08-27T00:07:40.325Z,55
2018-08-27T00:08:40.282Z,55.24
2018-08-27T00:09:40.132Z,55.57
2018-08-27T00:10:40.210Z,55.29
2018-08-27T00:11:40.043Z,55.27
2018-08-27T00:12:40.081Z,55.71
2018-08-27T00:13:40.059Z,55.2
2018-08-27T00:14:40.062Z,55.37
2018-08-27T00:15:40.121Z,55.11
2018-08-27T00:16:40.081Z,55.72
2018-08-27T00:17:40.296Z,55.17
2018-08-27T00:18:40.091Z,56.12
2018-08-27T00:19:40.063Z,55.81
2018-08-27T00:20:40.072Z,55.61
2018-08-27T00:21:40.169Z,55.91
2018-08-27T00:22:40.148Z,56.06
2018-08-27T00:23:40.081Z,55.47
2018-08-27T00:24:40.058Z,55.41
2018-08-27T00:25:40.078Z,55.96
2018-08-27T00:26:40.097Z,55.95
2018-08-27T00:27:40.148Z,56.07
2018-08-27T00:28:40.087Z,56.29
2018-08-27T00:29:40.220Z,56.04
2018-08-27T00:30:40.069Z,56.69
2018-08-27T00:31:40.150Z,56.67
2018-08-27T00:32:40.105Z,56.56
2018-08-27T00:33:40.434Z,57.06
2018-08-27T00:34:40.126Z,56.94
2018-08-27T00:35:40.211Z,56.98
2018-08-27T00:36:40.062Z,57.37
2018-08-27T00:37:40.313Z,56.9
2018-08-27T00:38:40.152Z,57.32
2018-08-27T00:39:40.112Z,56.83
2018-08-27T00:40:40.196Z,56.68
2018-08-27T00:41:40.079Z,57.24
2018-08-27T00:42:40.245Z,56.99
2018-08-27T00:43:40.120Z,57.09
2018-08-27T00:44:40.090Z,56.4
2018-08-27T00:45:40.107Z,56.59
2018-08-27T00:46:40.759Z,56.69
2018-08-27T00:47:40.153Z,56.82
2018-08-27T00:48:40.099Z,56.46
2018-08-27T00:49:40.167Z,57.06
2018-08-27T00:50:40.160Z,56.86
2018-08-27T00:51:40.109Z,57.05
2018-08-27T00:52:40.163Z,56.81
2018-08-27T00:53:40.245Z,57
2018-08-27T00:54:40.373Z,57.42
2018-08-27T00:55:40.167Z,56.69
2018-08-27T00:56:40.091Z,57.09
2018-08-27T00:57:40.165Z,56.8
2018-08-27T00:58:40.114Z,56.77
2018-08-27T00:59:40.120Z,57.13
2018-08-27T01:00:40.359Z,56.75
2018-08-27T01:01:40.112Z,57.11
2018-08-27T01:02:40.118Z,56.51
2018-08-27T01:03:40.092Z,57.11
2018-08-27T01:04:40.129Z,56.49
2018-08-27T01:05:40.124Z,57.29
2018-08-27T01:06:40.090Z,56.76
2018-08-27T01:07:40.128Z,57.16
2018-08-27T01:08:40.152Z,56.93
2018-08-27T01:09:40.121Z,57.16
2018-08-27T01:10:40.131Z,57.33
2018-08-27T01:11:40.108Z,57.24
2018-08-27T01:12:40.100Z,57.03
2018-08-27T01:13:40.100Z,56.93
2018-08-27T01:14:40.133Z,57.56
2018-08-27T01:15:40.131Z,56.98
2018-08-27T01:16:40.124Z,56.8
2018-08-27T01:17:40.166Z,57.2
2018-08-27T01:18:40.136Z,57.18
2018-08-27T01:19:40.163Z,56.82
2018-08-27T01:20:40.309Z,56.57
2018-08-27T01:21:40.154Z,56.94
2018-08-27T01:22:40.891Z,56.66
2018-08-27T01:23:40.163Z,56.36
2018-08-27T01:24:40.321Z,56.32
2018-08-27T01:25:40.328Z,56.33
2018-08-27T01:26:40.147Z,56.23
2018-08-27T01:27:40.123Z,56.2
2018-08-27T01:28:40.153Z,56.72
2018-08-27T01:29:40.216Z,56.48
2018-08-27T01:30:40.145Z,56.2
2018-08-27T01:31:40.156Z,56.06
2018-08-27T01:32:40.345Z,56.22
2018-08-27T01:33:40.482Z,56.41
2018-08-27T01:34:40.305Z,56.05
2018-08-27T01:35:40.133Z,56.2
2018-08-27T01:36:40.455Z,56.29
2018-08-27T01:37:40.142Z,56.38
2018-08-27T01:38:40.164Z,56.3
2018-08-27T01:39:40.215Z,56.08
2018-08-27T01:40:40.264Z,55.97
2018-08-27T01:41:40.275Z,56.27
2018-08-27T01:42:40.190Z,55.83
2018-08-27T01:43:40.165Z,55.98
2018-08-27T01:44:40.194Z,56
2018-08-27T01:45:40.442Z,55.91
2018-08-27T01:46:40.342Z,55.96
2018-08-27T01:47:40.300Z,55.96
2018-08-27T01:48:40.408Z,56.01
2018-08-27T01:49:40.207Z,55.79
2018-08-27T01:50:40.186Z,55.76
2018-08-27T01:51:40.171Z,55.57
2018-08-27T01:52:40.263Z,55.92
2018-08-27T01:53:40.155Z,56.18
2018-08-27T01:54:40.183Z,55.84
2018-08-27T01:55:40.448Z,55.76
2018-08-27T01:56:40.505Z,56.03
2018-08-27T01:57:40.156Z,56.31
2018-08-27T01:58:40.269Z,56
2018-08-27T01:59:40.318Z,56
2018-08-27T02:00:40.165Z,55.82
2018-08-27T02:01:40.215Z,56.01
2018-08-27T02:02:40.163Z,55.96
2018-08-27T02:03:40.508Z,56.21
2018-08-27T02:04:40.272Z,56.48
2018-08-27T02:05:40.425Z,55.89
2018-08-27T02:06:40.207Z,56.17
2018-08-27T02:07:40.233Z,56.18
2018-08-27T02:08:40.290Z,56.01
2018-08-27T02:09:40.355Z,56.02
2018-08-27T02:10:40.296Z,56.04
2018-08-27T02:11:40.185Z,56.07
2018-08-27T02:12:40.306Z,56.02
2018-08-27T02:13:40.241Z,56.23
2018-08-27T02:14:40.245Z,56.2
2018-08-27T02:15:40.215Z,56.39
2018-08-27T02:16:40.203Z,56.25
2018-08-27T02:17:40.219Z,56.38
2018-08-27T02:18:40.204Z,56.56
2018-08-27T02:19:40.197Z,56.61
2018-08-27T02:20:40.257Z,56.36
2018-08-27T02:21:40.247Z,56.44
2018-08-27T02:22:40.238Z,56.45
2018-08-27T02:23:40.180Z,56.41
2018-08-27T02:24:40.250Z,56.88
2018-08-27T02:25:40.201Z,57.03
2018-08-27T02:26:40.210Z,56.72
2018-08-27T02:27:40.208Z,56.78
2018-08-27T02:28:40.278Z,57.06
2018-08-27T02:29:40.582Z,56.7
2018-08-27T02:30:40.238Z,57.14
2018-08-27T02:31:40.238Z,56.54
2018-08-27T02:32:40.229Z,57.08
2018-08-27T02:33:40.586Z,56.74
2018-08-27T02:34:40.239Z,56.93
2018-08-27T02:35:40.233Z,56.92
2018-08-27T02:36:40.324Z,56.76
2018-08-27T02:37:40.324Z,56.8
2018-08-27T02:38:40.207Z,56.82
2018-08-27T02:39:40.690Z,56.56
2018-08-27T02:40:40.279Z,56.5
2018-08-27T02:41:40.252Z,56.71
2018-08-27T02:42:40.368Z,56.69
2018-08-27T02:43:40.231Z,56.99
2018-08-27T02:44:40.344Z,56.31
2018-08-27T02:45:40.343Z,56.64
2018-08-27T02:46:40.277Z,56.73
2018-08-27T02:47:40.410Z,56.76
2018-08-27T02:48:40.320Z,56.49
2018-08-27T02:49:40.544Z,56.22
2018-08-27T02:50:40.415Z,56.56
2018-08-27T02:51:40.277Z,56.32
2018-08-27T02:52:40.267Z,56.59
2018-08-27T02:53:40.315Z,56.53
2018-08-27T02:54:40.248Z,56.36
2018-08-27T02:55:40.448Z,56.64
2018-08-27T02:56:40.312Z,56.42
2018-08-27T02:57:40.222Z,56.68
2018-08-27T02:58:40.309Z,56.44
2018-08-27T02:59:40.582Z,56.78
2018-08-27T03:00:40.413Z,56.57
2018-08-27T03:01:40.305Z,56.73
2018-08-27T03:02:40.431Z,56.77
2018-08-27T03:03:40.272Z,56.52
2018-08-27T03:04:40.463Z,56.27
2018-08-27T03:05:40.280Z,56.66
2018-08-27T03:06:40.266Z,56.37
2018-08-27T03:07:40.405Z,56.38
2018-08-27T03:08:40.389Z,56.65
2018-08-27T03:09:40.445Z,56.56
2018-08-27T03:10:40.563Z,56.73
2018-08-27T03:11:40.367Z,56.8
2018-08-27T03:12:40.314Z,56.42
2018-08-27T03:13:40.272Z,56.94
2018-08-27T03:14:40.279Z,56.79
2018-08-27T03:15:40.393Z,56.89
2018-08-27T03:16:40.440Z,56.75
2018-08-27T03:17:40.354Z,57.09
2018-08-27T03:18:40.257Z,56.94
2018-08-27T03:19:40.585Z,56.82
2018-08-27T03:20:40.481Z,56.71
2018-08-27T03:21:40.268Z,57.11
2018-08-27T03:22:40.287Z,57.36
2018-08-27T03:23:40.314Z,56.67
2018-08-27T03:24:40.299Z,56.72
2018-08-27T03:25:40.266Z,56.68
2018-08-27T03:26:40.299Z,57.21
2018-08-27T03:27:40.317Z,57.09
2018-08-27T03:28:40.273Z,56.81
2018-08-27T03:29:40.291Z,56.97
2018-08-27T03:30:40.310Z,56.74
2018-08-27T03:31:40.306Z,56.67
2018-08-27T03:32:40.291Z,56.61
2018-08-27T03:33:40.314Z,56.62
2018-08-27T03:34:40.309Z,56.63
2018-08-27T03:35:40.268Z,56.85
2018-08-27T03:36:40.298Z,56.52
2018-08-27T03:37:40.284Z,56.66
2018-08-27T03:38:40.293Z,56.59
2018-08-27T03:39:40.293Z,56.57
2018-08-27T03:40:40.552Z,56.44
2018-08-27T03:41:40.346Z,56.63
2018-08-27T03:42:40.310Z,56.25
2018-08-27T03:43:40.310Z,56.25
2018-08-27T03:44:40.302Z,56.27
2018-08-27T03:45:40.286Z,56.44
2018-08-27T03:46:40.293Z,56.4
2018-08-27T03:47:40.319Z,56.14
2018-08-27T03:48:41.009Z,56.5
2018-08-27T03:49:40.615Z,56.25
2018-08-27T03:50:40.317Z,56.1
2018-08-27T03:51:40.385Z,56.15
2018-08-27T03:52:40.299Z,56.3
2018-08-27T03:53:40.491Z,56.05
2018-08-27T03:54:40.469Z,56.16
2018-08-27T03:55:40.319Z,56.18
2018-08-27T03:56:40.356Z,56.1
2018-08-27T03:57:40.456Z,56.27
2018-08-27T03:58:40.311Z,56.27
2018-08-27T03:59:40.379Z,56.1
2018-08-27T04:00:40.404Z,55.93
2018-08-27T04:01:40.319Z,56.34
2018-08-27T04:02:40.359Z,56
2018-08-27T04:03:40.821Z,56.18
2018-08-27T04:04:40.467Z,56.46
2018-08-27T04:05:40.479Z,56.59
2018-08-27T04:06:40.341Z,56.28
2018-08-27T04:07:40.872Z,56.31
2018-08-27T04:08:40.355Z,56.03
2018-08-27T04:09:40.525Z,56.28
2018-08-27T04:10:40.352Z,56.27
2018-08-27T04:11:40.330Z,56.2
2018-08-27T04:12:40.494Z,56.36
2018-08-27T04:13:40.331Z,56.53
2018-08-27T04:14:40.335Z,56.64
2018-08-27T04:15:40.603Z,56.49
2018-08-27T04:16:40.486Z,56.42
2018-08-27T04:17:40.319Z,56.64
2018-08-27T04:18:40.337Z,56.4
2018-08-27T04:19:40.566Z,56.52
2018-08-27T04:20:40.675Z,56.45
2018-08-27T04:21:40.398Z,56.24
2018-08-27T04:22:40.423Z,56.69
2018-08-27T04:23:40.338Z,56.34
2018-08-27T04:24:40.335Z,56.54
2018-08-27T04:25:40.367Z,56.62
2018-08-27T04:26:40.335Z,56.52
2018-08-27T04:27:40.333Z,56.48
2018-08-27T04:28:40.501Z,56.69
2018-08-27T04:29:40.678Z,56.32
2018-08-27T04:30:41.156Z,56.78
2018-08-27T04:31:40.401Z,56.55
2018-08-27T04:32:40.521Z,56.75
2018-08-27T04:33:40.380Z,56.77
2018-08-27T04:34:40.521Z,57.17
2018-08-27T04:35:40.499Z,56.66
2018-08-27T04:36:40.588Z,56.63
2018-08-27T04:37:40.452Z,56.56
2018-08-27T04:38:40.392Z,56.68
2018-08-27T04:39:40.481Z,56.98
2018-08-27T04:40:40.361Z,57.06
2018-08-27T04:41:40.822Z,56.78
2018-08-27T04:42:41.431Z,57.21
2018-08-27T04:43:40.401Z,57.16
2018-08-27T04:44:40.509Z,56.92
2018-08-27T04:45:40.382Z,56.89
2018-08-27T04:46:40.484Z,57.11
2018-08-27T04:47:40.458Z,56.87
2018-08-27T04:48:40.401Z,56.78
2018-08-27T04:49:40.931Z,56.88
2018-08-27T04:50:40.397Z,57.12
2018-08-27T04:51:40.385Z,57.42
2018-08-27T04:52:40.392Z,56.96
2018-08-27T04:53:40.379Z,57.02
2018-08-27T04:54:40.552Z,56.82
2018-08-27T04:55:40.395Z,57.58
2018-08-27T04:56:40.417Z,57.13
2018-08-27T04:57:40.588Z,57.03
2018-08-27T04:58:40.638Z,57.17
2018-08-27T04:59:40.465Z,57.16
2018-08-27T05:00:40.422Z,57.35
2018-08-27T05:01:40.417Z,56.9
2018-08-27T05:02:40.399Z,56.84
2018-08-27T05:03:40.423Z,56.78
2018-08-27T05:04:40.458Z,57.03
2018-08-27T05:05:40.400Z,56.88
2018-08-27T05:06:40.453Z,57.39
2018-08-27T05:07:40.440Z,57.17
2018-08-27T05:08:40.505Z,57.18
2018-08-27T05:09:40.392Z,57.01
2018-08-27T05:10:40.376Z,57.17
2018-08-27T05:11:40.422Z,57.53
2018-08-27T05:12:40.717Z,57.24
2018-08-27T05:13:40.422Z,56.98
2018-08-27T05:14:40.462Z,57.32
2018-08-27T05:15:40.612Z,56.97
2018-08-27T05:16:40.511Z,56.87
2018-08-27T05:17:42.097Z,57.01
2018-08-27T05:18:40.576Z,57.25
2018-08-27T05:19:40.735Z,57.24
2018-08-27T05:20:40.652Z,57.04
2018-08-27T05:21:40.393Z,57.15
2018-08-27T05:22:40.432Z,57.07
2018-08-27T05:23:40.989Z,57.34
2018-08-27T05:24:40.465Z,56.85
2018-08-27T05:25:40.739Z,56.94
2018-08-27T05:26:40.602Z,57.15
2018-08-27T05:27:40.483Z,56.71
2018-08-27T05:28:40.489Z,56.62
2018-08-27T05:29:40.805Z,56.7
2018-08-27T05:30:41.319Z,57.06
2018-08-27T05:31:40.494Z,56.89
2018-08-27T05:32:40.540Z,57.5
2018-08-27T05:33:40.480Z,56.98
2018-08-27T05:34:40.826Z,56.93
2018-08-27T05:35:40.639Z,56.79
2018-08-27T05:36:40.931Z,56.77
2018-08-27T05:37:40.525Z,56.72
2018-08-27T05:38:41.208Z,56.76
2018-08-27T05:39:40.463Z,56.7
2018-08-27T05:40:40.598Z,56.66
2018-08-27T05:41:40.475Z,56.52
2018-08-27T05:42:40.437Z,56.67
2018-08-27T05:43:40.518Z,56.78
2018-08-27T05:44:41.047Z,56.54
2018-08-27T05:45:40.513Z,56.45
2018-08-27T05:46:40.632Z,56.62
2018-08-27T05:47:40.670Z,56.43
2018-08-27T05:48:40.439Z,56.31
2018-08-27T05:49:40.488Z,56.26
2018-08-27T05:50:40.579Z,56.54
2018-08-27T05:51:40.457Z,56.33
2018-08-27T05:52:40.762Z,56.19
2018-08-27T05:53:40.545Z,56.05
2018-08-27T05:54:40.926Z,56
2018-08-27T05:55:40.985Z,56.05
2018-08-27T05:56:40.493Z,56.16
2018-08-27T05:57:40.794Z,55.56
2018-08-27T05:58:40.656Z,55.6
2018-08-27T05:59:40.473Z,55.72
2018-08-27T06:00:40.618Z,56.2
2018-08-27T06:01:41.172Z,56.07
2018-08-27T06:02:40.478Z,56.24
2018-08-27T06:03:40.539Z,56.36
2018-08-27T06:04:41.375Z,56.16
2018-08-27T06:05:40.910Z,56.16
2018-08-27T06:06:40.552Z,56.21
2018-08-27T06:07:40.482Z,56.18
2018-08-27T06:08:40.564Z,56.1
2018-08-27T06:09:40.663Z,56.51
2018-08-27T06:10:40.899Z,56.18
2018-08-27T06:11:40.652Z,56.15
2018-08-27T06:12:40.538Z,56.08
2018-08-27T06:13:40.503Z,56.59
2018-08-27T06:14:40.491Z,56.42
2018-08-27T06:15:41.696Z,56.44
2018-08-27T06:16:40.981Z,56.16
2018-08-27T06:17:40.666Z,56.25
2018-08-27T06:18:40.519Z,55.97
2018-08-27T06:19:40.534Z,56.08
2018-08-27T06:20:40.575Z,56.29
2018-08-27T06:21:40.515Z,56.6
2018-08-27T06:22:40.501Z,55.99
2018-08-27T06:23:40.488Z,55.74
2018-08-27T06:24:40.463Z,55.92
2018-08-27T06:25:41.335Z,55.71
2018-08-27T06:26:40.479Z,55.79
2018-08-27T06:27:40.815Z,55.73
2018-08-27T06:28:40.640Z,55.73
2018-08-27T06:29:40.644Z,55.9
2018-08-27T06:30:40.532Z,55.82
2018-08-27T06:31:40.484Z,55.95
2018-08-27T06:32:40.496Z,55.86
2018-08-27T06:33:40.546Z,56.09
2018-08-27T06:34:40.509Z,56.52
2018-08-27T06:35:40.860Z,57.47
2018-08-27T06:36:40.500Z,57.83
2018-08-27T06:37:40.768Z,58.06
2018-08-27T06:38:40.513Z,58.04
2018-08-27T06:39:41.499Z,59.1
2018-08-27T06:40:40.580Z,60.27
2018-08-27T06:41:40.811Z,59.79
2018-08-27T06:42:40.558Z,60.27
2018-08-27T06:43:40.840Z,59.29
2018-08-27T06:44:40.559Z,59.28
2018-08-27T06:45:40.546Z,58.87
2018-08-27T06:46:40.537Z,58.39
2018-08-27T06:47:40.668Z,60.09
2018-08-27T06:48:40.548Z,59.79
2018-08-27T06:49:41.080Z,60.36
2018-08-27T06:50:40.574Z,60.07
2018-08-27T06:51:40.555Z,59.78
2018-08-27T06:52:40.971Z,60.65
2018-08-27T06:53:40.522Z,61.09
2018-08-27T06:54:40.629Z,61.26
2018-08-27T06:55:40.519Z,60.23
2018-08-27T06:56:41.019Z,61.18
2018-08-27T06:57:40.591Z,62.32
2018-08-27T06:58:40.915Z,61.65
2018-08-27T06:59:40.539Z,61.8
2018-08-27T07:00:40.852Z,61.89
2018-08-27T07:01:40.546Z,62.86
2018-08-27T07:02:40.736Z,62.17
2018-08-27T07:03:41.124Z,64.86
2018-08-27T07:04:40.708Z,66.01
2018-08-27T07:05:40.552Z,62.57
2018-08-27T07:06:41.382Z,61.55
2018-08-27T07:07:40.932Z,62.29
2018-08-27T07:08:40.580Z,61.95
2018-08-27T07:09:41.020Z,61.82
2018-08-27T07:10:40.542Z,64.69
2018-08-27T07:11:40.933Z,63.37
2018-08-27T07:12:40.575Z,62.95
2018-08-27T07:13:40.570Z,63.72
2018-08-27T07:14:41.062Z,63.22
2018-08-27T07:15:40.752Z,63.06
2018-08-27T07:16:40.695Z,62.7
2018-08-27T07:17:40.623Z,62.85
2018-08-27T07:18:40.556Z,63.36
2018-08-27T07:19:40.809Z,63.83
2018-08-27T07:20:40.545Z,64.66
2018-08-27T07:21:40.664Z,65
2018-08-27T07:22:40.682Z,65.91
2018-08-27T07:23:40.908Z,65.08
2018-08-27T07:24:40.540Z,65.21
2018-08-27T07:25:40.551Z,64.35
2018-08-27T07:26:40.599Z,64.42
2018-08-27T07:27:40.617Z,65.03
2018-08-27T07:28:40.767Z,64.9
2018-08-27T07:29:40.560Z,64.64
2018-08-27T07:30:40.881Z,65.04
2018-08-27T07:31:40.622Z,64.76
2018-08-27T07:32:40.876Z,64.99
2018-08-27T07:33:40.574Z,65.58
2018-08-27T07:34:40.961Z,66.5
2018-08-27T07:35:41.305Z,66.5
2018-08-27T07:36:41.451Z,65.05
2018-08-27T07:37:40.562Z,65.85
2018-08-27T07:38:40.568Z,65.41
2018-08-27T07:39:40.586Z,65.51
2018-08-27T07:40:40.592Z,66.17
2018-08-27T07:41:40.590Z,66.34
2018-08-27T07:42:40.748Z,67.42
2018-08-27T07:43:41.864Z,66.83
2018-08-27T07:44:40.637Z,66.73
2018-08-27T07:45:40.767Z,66.23
2018-08-27T07:46:40.652Z,66.76
2018-08-27T07:47:41.901Z,65.89
2018-08-27T07:48:41.216Z,67.03
2018-08-27T07:49:40.548Z,66.9
2018-08-27T07:50:41.021Z,66.69
2018-08-27T07:51:40.971Z,66.47
2018-08-27T07:52:40.871Z,66.19
2018-08-27T07:53:40.591Z,66.31
2018-08-27T07:54:40.613Z,66.48
2018-08-27T07:55:40.677Z,66.45
2018-08-27T07:56:40.735Z,66.01
2018-08-27T07:57:40.589Z,66.74
2018-08-27T07:58:40.917Z,66.79
2018-08-27T07:59:40.750Z,66.49
2018-08-27T08:00:40.554Z,66.88
2018-08-27T08:01:40.631Z,66.54
2018-08-27T08:02:40.957Z,66.38
2018-08-27T08:03:40.678Z,67.26
2018-08-27T08:04:41.411Z,65.82
2018-08-27T08:05:40.589Z,65.8
2018-08-27T08:06:40.742Z,65.38
2018-08-27T08:07:40.640Z,65.93
2018-08-27T08:08:40.601Z,66.03
2018-08-27T08:09:40.783Z,66.32
2018-08-27T08:10:40.617Z,67.23
2018-08-27T08:11:41.773Z,66.53
2018-08-27T08:12:40.599Z,66.38
2018-08-27T08:13:40.821Z,66.25
2018-08-27T08:14:41.126Z,65.56
2018-08-27T08:15:40.623Z,66.36
2018-08-27T08:16:40.680Z,65.78
2018-08-27T08:17:40.653Z,65.41
2018-08-27T08:18:40.773Z,65.02
2018-08-27T08:19:40.603Z,64.81
2018-08-27T08:20:40.781Z,64.12
2018-08-27T08:21:40.785Z,65.79
2018-08-27T08:22:40.868Z,64.84
2018-08-27T08:23:40.784Z,64.5
2018-08-27T08:24:40.599Z,64.1
2018-08-27T08:25:41.988Z,64.01
2018-08-27T08:26:40.688Z,63.61
2018-08-27T08:27:41.798Z,64.05
2018-08-27T08:28:41.055Z,64.32
2018-08-27T08:29:41.035Z,63.37
2018-08-27T08:30:41.194Z,61.88
2018-08-27T08:31:40.638Z,61.77
2018-08-27T08:32:40.781Z,61.69
2018-08-27T08:33:40.633Z,62.29
2018-08-27T08:34:40.758Z,62.3
2018-08-27T08:35:40.710Z,62.82
2018-08-27T08:36:41.506Z,63.18
2018-08-27T08:37:40.670Z,63.65
2018-08-27T08:38:40.682Z,63.91
2018-08-27T08:39:40.871Z,63.03
2018-08-27T08:40:41.273Z,62.6
2018-08-27T08:41:40.658Z,61.98
2018-08-27T08:42:40.646Z,62.34
2018-08-27T08:43:40.912Z,61.65
2018-08-27T08:44:40.976Z,62.07
2018-08-27T08:45:41.365Z,61.81
2018-08-27T08:46:40.898Z,62.47
2018-08-27T08:47:40.711Z,61.3
2018-08-27T08:48:40.653Z,60.89
2018-08-27T08:49:40.774Z,60.16
2018-08-27T08:50:40.748Z,59.16
2018-08-27T08:51:40.791Z,59.71
2018-08-27T08:52:40.970Z,59.74
2018-08-27T08:53:40.992Z,59.77
2018-08-27T08:54:40.639Z,60.63
2018-08-27T08:55:40.687Z,58.37
2018-08-27T08:56:40.822Z,58.4
2018-08-27T08:57:40.805Z,57.74
2018-08-27T08:58:40.672Z,58.93
2018-08-27T08:59:40.652Z,59.87
2018-08-27T09:00:40.975Z,59.55
2018-08-27T09:01:41.018Z,59.72
2018-08-27T09:02:41.283Z,59.1
2018-08-27T09:03:40.802Z,59.22
2018-08-27T09:04:40.853Z,59.02
2018-08-27T09:05:42.388Z,59.3
2018-08-27T09:06:40.753Z,60.29
2018-08-27T09:07:40.876Z,60.33
2018-08-27T09:08:41.393Z,58.6
2018-08-27T09:09:40.839Z,57.9
2018-08-27T09:10:41.620Z,57.79
2018-08-27T09:11:40.670Z,57.62
2018-08-27T09:12:40.661Z,58.5
2018-08-27T09:13:40.666Z,56.89
2018-08-27T09:14:40.672Z,57.62
2018-08-27T09:15:40.743Z,57.46
2018-08-27T09:16:41.060Z,57.56
2018-08-27T09:17:41.548Z,57.61
2018-08-27T09:18:40.691Z,57.99
2018-08-27T09:19:40.714Z,57.98
2018-08-27T09:20:40.823Z,57.76
2018-08-27T09:21:40.755Z,57.7
2018-08-27T09:22:40.877Z,56.68
2018-08-27T09:23:41.186Z,56.5
2018-08-27T09:24:41.507Z,56.86
2018-08-27T09:25:40.693Z,56.69
2018-08-27T09:26:40.734Z,56.44
2018-08-27T09:27:41.126Z,58.61
2018-08-27T09:28:40.703Z,57.58
2018-08-27T09:29:40.890Z,60.2
2018-08-27T09:30:40.807Z,59.85
2018-08-27T09:31:41.070Z,60.34
2018-08-27T09:32:41.147Z,59.32
2018-08-27T09:33:40.678Z,59.47
2018-08-27T09:34:40.791Z,60.27
2018-08-27T09:35:40.733Z,60.96
2018-08-27T09:36:40.757Z,61.53
2018-08-27T09:37:41.029Z,60.18
2018-08-27T09:38:40.785Z,61.1
2018-08-27T09:39:40.764Z,61.01
2018-08-27T09:40:41.018Z,60.48
2018-08-27T09:41:41.853Z,60.57
2018-08-27T09:42:40.776Z,59.84
2018-08-27T09:43:41.054Z,60.12
2018-08-27T09:44:41.186Z,60.56
2018-08-27T09:45:40.771Z,60.58
2018-08-27T09:46:40.998Z,59.91
2018-08-27T09:47:40.746Z,59.86
2018-08-27T09:48:40.748Z,59.7
2018-08-27T09:49:40.729Z,59.7
2018-08-27T09:50:40.767Z,59.7
2018-08-27T09:51:40.838Z,59.99
2018-08-27T09:52:41.039Z,59.52
2018-08-27T09:53:41.019Z,59.31
2018-08-27T09:54:40.730Z,59.39
2018-08-27T09:55:40.740Z,59.66
2018-08-27T09:56:40.907Z,59.93
2018-08-27T09:57:40.725Z,60.18
2018-08-27T09:58:41.175Z,60.32
2018-08-27T09:59:40.719Z,61.42
2018-08-27T10:00:41.039Z,62.69
2018-08-27T10:01:40.721Z,63.99
2018-08-27T10:02:40.841Z,64.19
2018-08-27T10:03:40.745Z,64.75
2018-08-27T10:04:41.071Z,64.67
2018-08-27T10:05:40.707Z,65.84
2018-08-27T10:06:40.724Z,65.12
2018-08-27T10:07:40.710Z,65.41
2018-08-27T10:08:40.756Z,65.48
2018-08-27T10:09:40.777Z,65.47
2018-08-27T10:10:41.120Z,65.09
2018-08-27T10:11:40.721Z,65.25
2018-08-27T10:12:40.912Z,65.09
2018-08-27T10:13:40.869Z,65.22
2018-08-27T10:14:40.725Z,65.65
2018-08-27T10:15:40.733Z,65.87
2018-08-27T10:16:40.800Z,65.34
2018-08-27T10:17:40.740Z,65.45
2018-08-27T10:18:41.146Z,64.79
2018-08-27T10:19:40.823Z,63.92
2018-08-27T10:20:40.896Z,64.32
2018-08-27T10:21:40.978Z,62.78
2018-08-27T10:22:41.441Z,62.37
2018-08-27T10:23:40.816Z,61.77
2018-08-27T10:24:40.795Z,62.21
2018-08-27T10:25:40.760Z,61.25
2018-08-27T10:26:40.827Z,61.43
2018-08-27T10:27:40.744Z,61.25
2018-08-27T10:28:40.793Z,61.34
2018-08-27T10:29:41.043Z,61.17
2018-08-27T10:30:40.750Z,60.71
2018-08-27T10:31:40.992Z,61.23
2018-08-27T10:32:41.083Z,61.26
2018-08-27T10:33:41.166Z,61.27
2018-08-27T10:34:40.863Z,60.74
2018-08-27T10:35:40.958Z,60.54
2018-08-27T10:36:40.792Z,60.41
2018-08-27T10:37:40.808Z,60.26
2018-08-27T10:38:40.802Z,60.54
2018-08-27T10:39:40.824Z,60.06
2018-08-27T10:40:40.761Z,60.15
2018-08-27T10:41:40.839Z,60.51
2018-08-27T10:42:41.044Z,59.36
2018-08-27T10:43:40.746Z,59.69
2018-08-27T10:44:41.186Z,59.65
2018-08-27T10:45:40.884Z,59.64
2018-08-27T10:46:40.789Z,59.8
2018-08-27T10:47:41.082Z,59.56
2018-08-27T10:48:40.816Z,59.48
2018-08-27T10:49:40.894Z,59.46
2018-08-27T10:50:40.829Z,59.38
2018-08-27T10:51:41.036Z,59.52
2018-08-27T10:52:40.943Z,59.54
2018-08-27T10:53:40.797Z,59.24
2018-08-27T10:54:40.813Z,59.37
2018-08-27T10:55:41.039Z,59.11
2018-08-27T10:56:40.795Z,59.64
2018-08-27T10:57:40.874Z,59.1
2018-08-27T10:58:40.923Z,59.28
2018-08-27T10:59:41.022Z,59.52
2018-08-27T11:00:40.905Z,59.58
2018-08-27T11:01:40.804Z,59.04
2018-08-27T11:02:41.151Z,59.01
2018-08-27T11:03:40.806Z,58.35
2018-08-27T11:04:41.083Z,57.81
2018-08-27T11:05:40.850Z,58.16
2018-08-27T11:06:40.866Z,57.95
2018-08-27T11:07:40.850Z,57.88
2018-08-27T11:08:40.852Z,58.28
2018-08-27T11:09:41.107Z,58.13
2018-08-27T11:10:41.213Z,58.12
2018-08-27T11:11:41.233Z,58.61
2018-08-27T11:12:41.342Z,58.68
2018-08-27T11:13:41.009Z,58.81
2018-08-27T11:14:40.884Z,58.91
2018-08-27T11:15:40.857Z,58.99
2018-08-27T11:16:40.825Z,58.94
2018-08-27T11:17:40.850Z,58.6
2018-08-27T11:18:40.798Z,58.74
2018-08-27T11:19:41.928Z,58.56
2018-08-27T11:20:41.866Z,58.93
2018-08-27T11:21:40.920Z,59.31
2018-08-27T11:22:40.836Z,60.19
2018-08-27T11:23:40.844Z,60.34
2018-08-27T11:24:40.835Z,60.66
2018-08-27T11:25:40.862Z,60.73
2018-08-27T11:26:42.920Z,60.99
2018-08-27T11:27:40.810Z,61.18
2018-08-27T11:28:40.978Z,61.64
2018-08-27T11:29:41.056Z,62.1
2018-08-27T11:30:40.866Z,62.39
2018-08-27T11:31:40.847Z,62.77
2018-08-27T11:32:40.869Z,62.94
2018-08-27T11:33:40.845Z,62.99
2018-08-27T11:34:40.845Z,64.44
2018-08-27T11:35:41.621Z,64.68
2018-08-27T11:36:41.043Z,64.94
2018-08-27T11:37:41.524Z,64.8
2018-08-27T11:38:40.900Z,65.18
2018-08-27T11:39:41.114Z,65.76
2018-08-27T11:40:40.867Z,64.81
2018-08-27T11:41:40.858Z,65.36
2018-08-27T11:42:42.078Z,64.49
2018-08-27T11:43:40.892Z,64.93
2018-08-27T11:44:41.150Z,64.6
2018-08-27T11:45:41.045Z,64.73
2018-08-27T11:46:40.851Z,64.09
2018-08-27T11:47:41.161Z,64.07
2018-08-27T11:48:40.921Z,64.71
2018-08-27T11:49:40.873Z,63.94
2018-08-27T11:50:42.007Z,64.14
2018-08-27T11:51:40.986Z,63.68
2018-08-27T11:52:40.937Z,64.02
2018-08-27T11:53:40.972Z,64.82
2018-08-27T11:54:40.904Z,64.82
2018-08-27T11:55:41.044Z,64.15
2018-08-27T11:56:41.947Z,64.16
2018-08-27T11:57:40.928Z,64.37
2018-08-27T11:58:41.471Z,65.43
2018-08-27T11:59:40.867Z,65.93
2018-08-27T12:00:41.047Z,66.43
2018-08-27T12:01:40.891Z,66.37
2018-08-27T12:02:41.399Z,66.48
2018-08-27T12:03:41.058Z,66.79
2018-08-27T12:04:40.878Z,66.02
2018-08-27T12:05:40.887Z,65.48
2018-08-27T12:06:40.962Z,65.47
2018-08-27T12:07:41.236Z,65.46
2018-08-27T12:08:40.895Z,65
2018-08-27T12:09:40.884Z,65.03
2018-08-27T12:10:40.873Z,64.56
2018-08-27T12:11:41.020Z,64.35
2018-08-27T12:12:41.335Z,63.92
2018-08-27T12:13:41.026Z,63.93
2018-08-27T12:14:41.015Z,64.2
2018-08-27T12:15:41.667Z,64.51
2018-08-27T12:16:41.254Z,64.12
2018-08-27T12:17:40.910Z,64.68
2018-08-27T12:18:41.192Z,64.47
2018-08-27T12:19:40.911Z,64.87
2018-08-27T12:20:41.016Z,63.61
2018-08-27T12:21:41.141Z,63.29
2018-08-27T12:22:40.945Z,63
2018-08-27T12:23:41.130Z,63.34
2018-08-27T12:24:41.104Z,63.27
2018-08-27T12:25:40.934Z,63.08
2018-08-27T12:26:41.060Z,62.91
2018-08-27T12:27:41.034Z,62.94
2018-08-27T12:28:41.049Z,62.71
2018-08-27T12:29:40.940Z,62.67
2018-08-27T12:30:41.107Z,62.29
2018-08-27T12:31:41.031Z,61.9
2018-08-27T12:32:40.998Z,62.44
2018-08-27T12:33:40.937Z,62.41
2018-08-27T12:34:40.902Z,61.77
2018-08-27T12:35:40.984Z,61.34
2018-08-27T12:36:40.959Z,61.5
2018-08-27T12:37:41.530Z,61.28
2018-08-27T12:38:41.217Z,61.29
2018-08-27T12:39:40.970Z,60.51
2018-08-27T12:40:41.881Z,60.25
2018-08-27T12:41:41.136Z,60.4
2018-08-27T12:42:40.918Z,60.5
2018-08-27T12:43:41.414Z,60.41
2018-08-27T12:44:40.915Z,60.79
2018-08-27T12:45:40.978Z,60.02
2018-08-27T12:46:40.898Z,60.16
2018-08-27T12:47:40.903Z,60.17
2018-08-27T12:48:40.925Z,59.91
2018-08-27T12:49:40.891Z,59.86
2018-08-27T12:50:41.164Z,59.56
2018-08-27T12:51:40.979Z,59.29
2018-08-27T12:52:40.938Z,59.15
2018-08-27T12:53:41.004Z,59.36
2018-08-27T12:54:40.944Z,59.68
2018-08-27T12:55:41.037Z,59.71